Download Report Download Report to Microsoft Excel
Nashua River at East Pepperell
 Total Drainage Area: 316 sq. miles 
 Drainage Area Controlled by Corps Dams: 0 sq. miles (0%) 
 Warning Flow/Stage: 2,990 cfs / 6.5 feet 
 Flood Flow/Stage: 4,080 cfs / 8.0 feet 
Date Time
(Eastern)
Stage
(ft)
Flow
(cfs)
CSM
(cfs / sq. mi.)
29 May 2024 03:30 PM 2.94 866 2.7
29 May 2024 03:15 PM 2.94 866 2.7
29 May 2024 03:00 PM 2.94 866 2.7
29 May 2024 02:45 PM 2.94 866 2.7
29 May 2024 02:30 PM 2.94 866 2.7
29 May 2024 02:15 PM 2.95 871 2.8
29 May 2024 02:00 PM 2.94 866 2.7
29 May 2024 01:45 PM 2.94 866 2.7
29 May 2024 01:30 PM 2.95 871 2.8
29 May 2024 01:15 PM 2.95 871 2.8
29 May 2024 01:00 PM 2.94 866 2.7
29 May 2024 12:45 PM 2.95 871 2.8
29 May 2024 12:30 PM 2.96 876 2.8
29 May 2024 12:15 PM 2.95 871 2.8
29 May 2024 12:00 PM 2.96 876 2.8
29 May 2024 11:45 AM 2.95 871 2.8
29 May 2024 11:30 AM 2.96 876 2.8
29 May 2024 11:15 AM 2.96 876 2.8
29 May 2024 11:00 AM 2.96 876 2.8
29 May 2024 10:45 AM 2.96 876 2.8
29 May 2024 10:30 AM 2.96 876 2.8
29 May 2024 10:15 AM 2.96 876 2.8
29 May 2024 10:00 AM 2.96 876 2.8
29 May 2024 09:45 AM 2.95 871 2.8
29 May 2024 09:30 AM 2.89 840 2.7
29 May 2024 09:15 AM 2.88 834 2.6
29 May 2024 09:00 AM 2.89 840 2.7
29 May 2024 08:45 AM 2.89 840 2.7
29 May 2024 08:30 AM 2.90 845 2.7
29 May 2024 08:15 AM 2.89 840 2.7
29 May 2024 08:00 AM 2.89 840 2.7
29 May 2024 07:45 AM 2.89 840 2.7
29 May 2024 07:30 AM 2.89 840 2.7
29 May 2024 07:15 AM 2.90 845 2.7
29 May 2024 07:00 AM 2.89 840 2.7
29 May 2024 06:45 AM 2.89 840 2.7
29 May 2024 06:30 AM 2.89 840 2.7
29 May 2024 06:15 AM 2.88 834 2.6
29 May 2024 06:00 AM 2.88 834 2.6
29 May 2024 05:45 AM 2.89 840 2.7
29 May 2024 05:30 AM 2.89 840 2.7
29 May 2024 05:15 AM 2.88 834 2.6
29 May 2024 05:00 AM 2.88 834 2.6
29 May 2024 04:45 AM 2.88 834 2.6
29 May 2024 04:30 AM 2.88 834 2.6
29 May 2024 04:15 AM 2.88 834 2.6
29 May 2024 04:00 AM 2.88 834 2.6
29 May 2024 03:45 AM 2.88 834 2.6
29 May 2024 03:30 AM 2.88 834 2.6
29 May 2024 03:15 AM 2.87 829 2.6
29 May 2024 03:00 AM 2.87 829 2.6
29 May 2024 02:45 AM 2.88 834 2.6
29 May 2024 02:30 AM 2.87 829 2.6
29 May 2024 02:15 AM 2.88 834 2.6
29 May 2024 02:00 AM 2.88 834 2.6
29 May 2024 01:45 AM 2.87 829 2.6
29 May 2024 01:30 AM 2.88 834 2.6
29 May 2024 01:15 AM 2.87 829 2.6
29 May 2024 01:00 AM 2.87 829 2.6
29 May 2024 12:45 AM 2.88 834 2.6
29 May 2024 12:30 AM 2.87 829 2.6
29 May 2024 12:15 AM 2.87 829 2.6
29 May 2024 12:00 AM 2.87 829 2.6
28 May 2024 11:45 PM 2.87 829 2.6
28 May 2024 11:30 PM 2.86 824 2.6
28 May 2024 11:15 PM 2.86 824 2.6
28 May 2024 11:00 PM 2.86 824 2.6
28 May 2024 10:45 PM 2.86 824 2.6
28 May 2024 10:30 PM 2.86 824 2.6
28 May 2024 10:15 PM 2.86 824 2.6
28 May 2024 10:00 PM 2.85 819 2.6
28 May 2024 09:45 PM 2.85 819 2.6
28 May 2024 09:30 PM 2.85 819 2.6
28 May 2024 09:15 PM 2.85 819 2.6
28 May 2024 09:00 PM 2.85 819 2.6
28 May 2024 08:45 PM 2.85 819 2.6
28 May 2024 08:30 PM 2.85 819 2.6
28 May 2024 08:15 PM 2.84 814 2.6
28 May 2024 08:00 PM 2.84 814 2.6
28 May 2024 07:45 PM 2.84 814 2.6
28 May 2024 07:30 PM 2.84 814 2.6
28 May 2024 07:15 PM 2.84 814 2.6
28 May 2024 07:00 PM 2.83 809 2.6
28 May 2024 06:45 PM 2.83 809 2.6
28 May 2024 06:30 PM 2.83 809 2.6
28 May 2024 06:15 PM 2.83 809 2.6
28 May 2024 06:00 PM 2.83 809 2.6
28 May 2024 05:45 PM 2.82 804 2.5
28 May 2024 05:30 PM 2.82 804 2.5
28 May 2024 05:15 PM 2.82 804 2.5
28 May 2024 05:00 PM 2.82 804 2.5
28 May 2024 04:45 PM 2.81 799 2.5
28 May 2024 04:30 PM 2.81 799 2.5
28 May 2024 04:15 PM 2.81 799 2.5
28 May 2024 04:00 PM 2.80 794 2.5
28 May 2024 03:45 PM 2.80 794 2.5
28 May 2024 03:30 PM 2.81 799 2.5
28 May 2024 03:15 PM 2.80 794 2.5
28 May 2024 03:00 PM 2.80 794 2.5
28 May 2024 02:45 PM 2.80 794 2.5
28 May 2024 02:30 PM 2.80 794 2.5
28 May 2024 02:15 PM 2.80 794 2.5
28 May 2024 02:00 PM 2.79 789 2.5
28 May 2024 01:45 PM 2.79 789 2.5
28 May 2024 01:30 PM 2.79 789 2.5
28 May 2024 01:15 PM 2.78 784 2.5
28 May 2024 01:00 PM 2.78 784 2.5
28 May 2024 12:45 PM 2.78 784 2.5
28 May 2024 12:30 PM 2.80 794 2.5
28 May 2024 12:15 PM 2.78 784 2.5
28 May 2024 12:00 PM 2.74 764 2.4
28 May 2024 11:45 AM 2.72 754 2.4
28 May 2024 11:30 AM 2.71 749 2.4
28 May 2024 11:15 AM 2.70 744 2.4
28 May 2024 11:00 AM 2.69 740 2.3
28 May 2024 10:45 AM 2.71 749 2.4
28 May 2024 10:30 AM 2.70 744 2.4
28 May 2024 10:15 AM 2.70 744 2.4
28 May 2024 10:00 AM 2.69 740 2.3
28 May 2024 09:45 AM 2.70 744 2.4
28 May 2024 09:30 AM 2.69 740 2.3
28 May 2024 09:15 AM 2.69 740 2.3
28 May 2024 09:00 AM 2.68 735 2.3
28 May 2024 08:45 AM 2.69 740 2.3
28 May 2024 08:30 AM 2.68 735 2.3
28 May 2024 08:15 AM 2.68 735 2.3
28 May 2024 08:00 AM 2.68 735 2.3
28 May 2024 07:45 AM 2.68 735 2.3
28 May 2024 07:30 AM 2.68 735 2.3
28 May 2024 07:15 AM 2.67 730 2.3
28 May 2024 07:00 AM 2.67 730 2.3
28 May 2024 06:45 AM 2.67 730 2.3
28 May 2024 06:30 AM 2.67 730 2.3
28 May 2024 06:15 AM 2.67 730 2.3
28 May 2024 06:00 AM 2.68 735 2.3
28 May 2024 05:45 AM 2.67 730 2.3
28 May 2024 05:30 AM 2.66 725 2.3
28 May 2024 05:15 AM 2.67 730 2.3
28 May 2024 05:00 AM 2.67 730 2.3
28 May 2024 04:45 AM 2.66 725 2.3
28 May 2024 04:30 AM 2.65 720 2.3
28 May 2024 04:15 AM 2.66 725 2.3
28 May 2024 04:00 AM 2.66 725 2.3
28 May 2024 03:45 AM 2.65 720 2.3
28 May 2024 03:30 AM 2.65 720 2.3
28 May 2024 03:15 AM 2.64 716 2.3
28 May 2024 03:00 AM 2.66 725 2.3
28 May 2024 02:45 AM 2.64 716 2.3
28 May 2024 02:30 AM 2.63 711 2.3
28 May 2024 02:15 AM 2.63 711 2.3
28 May 2024 02:00 AM 2.64 716 2.3
28 May 2024 01:45 AM 2.63 711 2.3
28 May 2024 01:30 AM 2.64 716 2.3
28 May 2024 01:15 AM 2.63 711 2.3
28 May 2024 01:00 AM 2.63 711 2.3
28 May 2024 12:45 AM 2.64 716 2.3
28 May 2024 12:30 AM 2.63 711 2.3
28 May 2024 12:15 AM 2.62 706 2.2
28 May 2024 12:00 AM 2.63 711 2.3
27 May 2024 11:45 PM 2.63 711 2.3
27 May 2024 11:30 PM 2.62 706 2.2
27 May 2024 11:15 PM 2.62 706 2.2
27 May 2024 11:00 PM 2.63 711 2.3
27 May 2024 10:45 PM 2.63 711 2.3
27 May 2024 10:30 PM 2.62 706 2.2
27 May 2024 10:15 PM 2.63 711 2.3
27 May 2024 10:00 PM 2.62 706 2.2
27 May 2024 09:45 PM 2.58 687 2.2
27 May 2024 09:30 PM 2.58 687 2.2
27 May 2024 09:15 PM 2.59 692 2.2
27 May 2024 09:00 PM 2.59 692 2.2
27 May 2024 08:45 PM 2.58 687 2.2
Report Generated May 29, 2024 04:34 pm